Ashton, WV (25503)

10:12 AM EDT on May 04, 2015 (GMT -0400)
The Linde Farm in Ashton | | Change Station
CLOSE
Current Station
Personal Weather Station
Location: Ashton, WV
Elevation: 692 ft
Nearby Weather Stations

Elev 692 ft 38.58 °N, 82.08 °W | Updated 8 minutes ago

Clear
Clear
73.6 °F
Feels Like 77 °F
N
0.0
Wind Variable Wind from WSW

Today
High -- | Low -- °F
--% Chance of Precip.
Yesterday
High -- | Low -- °F
Precip. -- in
6:28 AM 8:23 PM
Full, 100% visible
Pressure 30.23 in
Visibility 10.0 miles
Clouds Clear
Heat Index 77 °F
Dew Point 56 °F
Humidity 54%
Rainfall 0.00 in
Snow Depth Not available.
UV 5 out of 12
Pollen 10.10 out of 12
Air Quality Not available.
Flu Activity Sporadic
METAR K3I2 041355Z AUTO 22005KT 10SM CLR 21/11 A3023 RMK AO2

More Conditions Fewer Conditions

Pressure 30.23 in
Visibility 10.0 miles
Clouds Clear
Heat Index 77 °F
Dew Point 56 °F
Humidity 54%
Rainfall 0.00 in
Snow Depth Not available.
UV 5 out of 12
Pollen 10.10 out of 12
Air Quality Not available.
Flu Activity Sporadic
METAR K3I2 041355Z AUTO 22005KT 10SM CLR 21/11 A3023 RMK AO2

More Conditions Fewer Conditions

Nepal has a long way to go to dig out and rebuild from a devastating earthquake. We have teamed up with several charities and organizations to make contributing to the relief effort as easy as possible.
How you can help: Portlight Strategies | Red Cross

10-Day Weather Forecast

Almanac

Astronomy

May. 04, 2015 Rise Set
Actual Time
Civil Twilight
Nautical Twilight
Astronomical Twilight
Moon
Length of Visible Light
Length of Day
Tomorrow will be .
, % of the Moon is Illuminated

Today's Extremes

State Highs State Lows

Community

WunderPhotos

Upload Photos

1,818,619 photos uploaded!

WunderBlogs® & News

Nearby

Air Quality

  Air Quality AQ Index Pollutant
Not available.

Snow Depth

Station Depth Elevation

Earthquake Activity

City Distance Mag. Time & Date
Minimum magnitude displayed is 2.5.

Coastal Water Temperatures

Place Temperature

Stations

Nearby Weather Stations

Station Location Temp. Windchill Dew Point Humidity Wind Precip. Elev Updated Type